sensor_id;sensor_type;location;lat;lon;timestamp;pressure;altitude;pressure_sealevel;temperature;humidity
28626;BME280;18905;42.668;23.364;2024-02-26T00:00:07;94692.06;;;8.35;73.13
28626;BME280;18905;42.668;23.364;2024-02-26T00:02:38;94703.66;;;8.46;72.63
28626;BME280;18905;42.668;23.364;2024-02-26T00:05:06;94701.47;;;8.53;72.41
28626;BME280;18905;42.668;23.364;2024-02-26T00:07:32;94701.00;;;8.51;71.81
28626;BME280;18905;42.668;23.364;2024-02-26T00:09:57;94697.41;;;8.52;72.00
28626;BME280;18905;42.668;23.364;2024-02-26T00:12:22;94683.88;;;8.46;72.06
28626;BME280;18905;42.668;23.364;2024-02-26T00:14:48;94690.72;;;8.51;71.82
28626;BME280;18905;42.668;23.364;2024-02-26T00:17:15;94693.03;;;8.52;72.25
28626;BME280;18905;42.668;23.364;2024-02-26T00:19:41;94693.13;;;8.47;72.52
28626;BME280;18905;42.668;23.364;2024-02-26T00:22:06;94695.78;;;8.56;72.79
28626;BME280;18905;42.668;23.364;2024-02-26T00:24:32;94681.69;;;8.53;72.59
28626;BME280;18905;42.668;23.364;2024-02-26T00:26:57;94687.03;;;8.57;72.69
28626;BME280;18905;42.668;23.364;2024-02-26T00:29:22;94682.38;;;8.59;73.04
28626;BME280;18905;42.668;23.364;2024-02-26T00:31:48;94679.81;;;8.59;73.80
28626;BME280;18905;42.668;23.364;2024-02-26T00:34:14;94681.38;;;8.68;73.22
28626;BME280;18905;42.668;23.364;2024-02-26T00:36:39;94680.38;;;8.42;72.56
28626;BME280;18905;42.668;23.364;2024-02-26T00:39:04;94667.16;;;7.89;74.50
28626;BME280;18905;42.668;23.364;2024-02-26T00:41:30;94670.31;;;7.86;74.92
28626;BME280;18905;42.668;23.364;2024-02-26T00:43:55;94674.22;;;7.97;74.60
28626;BME280;18905;42.668;23.364;2024-02-26T00:46:21;94665.94;;;8.01;74.48
28626;BME280;18905;42.668;23.364;2024-02-26T00:48:46;94670.91;;;8.11;74.62
28626;BME280;18905;42.668;23.364;2024-02-26T00:51:12;94650.94;;;8.08;74.46
28626;BME280;18905;42.668;23.364;2024-02-26T00:53:37;94658.56;;;8.13;74.12
28626;BME280;18905;42.668;23.364;2024-02-26T00:56:02;94663.03;;;8.21;73.83
28626;BME280;18905;42.668;23.364;2024-02-26T00:58:28;94659.25;;;8.18;74.58
28626;BME280;18905;42.668;23.364;2024-02-26T01:00:53;94647.34;;;8.09;73.67
28626;BME280;18905;42.668;23.364;2024-02-26T01:03:19;94642.50;;;8.07;73.92
28626;BME280;18905;42.668;23.364;2024-02-26T01:05:44;94648.13;;;8.23;73.89
28626;BME280;18905;42.668;23.364;2024-02-26T01:08:10;94643.56;;;8.33;73.38
28626;BME280;18905;42.668;23.364;2024-02-26T01:10:35;94648.72;;;8.33;73.97
28626;BME280;18905;42.668;23.364;2024-02-26T01:13:01;94643.97;;;8.40;73.65
28626;BME280;18905;42.668;23.364;2024-02-26T01:15:26;94643.09;;;8.45;73.48
28626;BME280;18905;42.668;23.364;2024-02-26T01:17:52;94638.25;;;8.30;72.88
28626;BME280;18905;42.668;23.364;2024-02-26T01:20:18;94650.88;;;8.13;73.33
28626;BME280;18905;42.668;23.364;2024-02-26T01:22:44;94644.88;;;8.04;73.99
28626;BME280;18905;42.668;23.364;2024-02-26T01:25:09;94648.38;;;8.08;74.95
28626;BME280;18905;42.668;23.364;2024-02-26T01:27:36;94642.13;;;8.14;73.88
28626;BME280;18905;42.668;23.364;2024-02-26T01:30:05;94639.09;;;8.12;74.63
28626;BME280;18905;42.668;23.364;2024-02-26T01:32:32;94636.41;;;8.17;74.31
28626;BME280;18905;42.668;23.364;2024-02-26T01:34:57;94627.69;;;8.18;74.34
28626;BME280;18905;42.668;23.364;2024-02-26T01:37:23;94633.66;;;8.13;74.94
28626;BME280;18905;42.668;23.364;2024-02-26T01:39:48;94633.69;;;8.27;74.89
28626;BME280;18905;42.668;23.364;2024-02-26T01:42:14;94622.66;;;8.26;74.96
28626;BME280;18905;42.668;23.364;2024-02-26T01:44:39;94632.75;;;8.36;74.93
28626;BME280;18905;42.668;23.364;2024-02-26T01:47:11;94638.44;;;8.47;74.77
28626;BME280;18905;42.668;23.364;2024-02-26T01:49:37;94625.78;;;8.50;74.22
28626;BME280;18905;42.668;23.364;2024-02-26T01:52:05;94622.34;;;8.55;74.00
28626;BME280;18905;42.668;23.364;2024-02-26T01:54:31;94634.06;;;8.47;74.43
28626;BME280;18905;42.668;23.364;2024-02-26T01:56:57;94622.84;;;8.43;73.92
28626;BME280;18905;42.668;23.364;2024-02-26T01:59:23;94620.00;;;8.45;74.24
28626;BME280;18905;42.668;23.364;2024-02-26T02:01:54;94614.38;;;8.43;74.10
28626;BME280;18905;42.668;23.364;2024-02-26T02:04:21;94620.63;;;8.50;73.84
28626;BME280;18905;42.668;23.364;2024-02-26T02:06:48;94615.31;;;8.47;74.09
28626;BME280;18905;42.668;23.364;2024-02-26T02:09:13;94603.53;;;8.46;73.82
28626;BME280;18905;42.668;23.364;2024-02-26T02:11:39;94620.00;;;8.45;74.25
28626;BME280;18905;42.668;23.364;2024-02-26T02:14:05;94604.59;;;8.45;73.62
28626;BME280;18905;42.668;23.364;2024-02-26T02:16:31;94604.50;;;8.50;73.72
28626;BME280;18905;42.668;23.364;2024-02-26T02:19:00;94605.34;;;8.59;73.45
28626;BME280;18905;42.668;23.364;2024-02-26T02:21:25;94615.59;;;8.59;73.58
28626;BME280;18905;42.668;23.364;2024-02-26T02:23:50;94608.88;;;8.36;74.63
28626;BME280;18905;42.668;23.364;2024-02-26T02:26:16;94621.69;;;8.49;74.61
28626;BME280;18905;42.668;23.364;2024-02-26T02:28:43;94622.84;;;8.43;75.13
28626;BME280;18905;42.668;23.364;2024-02-26T02:31:08;94617.09;;;7.78;77.96
28626;BME280;18905;42.668;23.364;2024-02-26T02:33:34;94624.44;;;7.98;77.85
28626;BME280;18905;42.668;23.364;2024-02-26T02:36:00;94618.44;;;8.17;77.17
28626;BME280;18905;42.668;23.364;2024-02-26T02:38:25;94610.19;;;8.20;76.78
28626;BME280;18905;42.668;23.364;2024-02-26T02:40:54;94604.97;;;8.25;76.75
28626;BME280;18905;42.668;23.364;2024-02-26T02:43:19;94615.63;;;8.45;76.08
28626;BME280;18905;42.668;23.364;2024-02-26T02:45:45;94626.44;;;8.56;75.69
28626;BME280;18905;42.668;23.364;2024-02-26T02:48:13;94621.13;;;8.66;74.71
28626;BME280;18905;42.668;23.364;2024-02-26T02:50:38;94615.38;;;8.69;75.17
28626;BME280;18905;42.668;23.364;2024-02-26T02:53:04;94614.53;;;8.60;75.35
28626;BME280;18905;42.668;23.364;2024-02-26T02:55:30;94619.41;;;8.61;74.79
28626;BME280;18905;42.668;23.364;2024-02-26T02:57:55;94622.63;;;8.67;74.60
28626;BME280;18905;42.668;23.364;2024-02-26T03:00:21;94626.13;;;8.71;74.61
28626;BME280;18905;42.668;23.364;2024-02-26T03:02:48;94631.94;;;8.77;74.57
28626;BME280;18905;42.668;23.364;2024-02-26T03:05:14;94624.84;;;8.82;74.25
28626;BME280;18905;42.668;23.364;2024-02-26T03:07:39;94630.00;;;8.82;74.33
28626;BME280;18905;42.668;23.364;2024-02-26T03:10:05;94635.31;;;8.86;74.16
28626;BME280;18905;42.668;23.364;2024-02-26T03:12:31;94639.63;;;8.77;74.20
28626;BME280;18905;42.668;23.364;2024-02-26T03:14:56;94640.47;;;8.86;73.83
28626;BME280;18905;42.668;23.364;2024-02-26T03:17:22;94630.97;;;8.86;73.78
28626;BME280;18905;42.668;23.364;2024-02-26T03:19:49;94636.56;;;8.88;73.88
28626;BME280;18905;42.668;23.364;2024-02-26T03:22:18;94633.53;;;8.86;74.01
28626;BME280;18905;42.668;23.364;2024-02-26T03:24:44;94628.50;;;8.81;74.58
28626;BME280;18905;42.668;23.364;2024-02-26T03:27:09;94625.16;;;8.81;74.13
28626;BME280;18905;42.668;23.364;2024-02-26T03:29:36;94615.22;;;8.65;74.82
28626;BME280;18905;42.668;23.364;2024-02-26T03:32:02;94613.97;;;8.63;74.68
28626;BME280;18905;42.668;23.364;2024-02-26T03:34:28;94617.28;;;8.77;74.45
28626;BME280;18905;42.668;23.364;2024-02-26T03:36:53;94610.72;;;8.71;74.13
28626;BME280;18905;42.668;23.364;2024-02-26T03:39:19;94612.13;;;8.77;73.91
28626;BME280;18905;42.668;23.364;2024-02-26T03:41:44;94608.94;;;8.58;74.84
28626;BME280;18905;42.668;23.364;2024-02-26T03:44:09;94601.72;;;8.46;74.53
28626;BME280;18905;42.668;23.364;2024-02-26T03:46:35;94615.31;;;8.20;75.65
28626;BME280;18905;42.668;23.364;2024-02-26T03:49:00;94609.31;;;7.83;77.48
28626;BME280;18905;42.668;23.364;2024-02-26T03:51:26;94613.03;;;7.91;77.72
28626;BME280;18905;42.668;23.364;2024-02-26T03:53:51;94611.97;;;7.92;77.17
28626;BME280;18905;42.668;23.364;2024-02-26T03:56:17;94597.25;;;7.70;77.72
28626;BME280;18905;42.668;23.364;2024-02-26T03:58:42;94612.72;;;7.65;78.49
28626;BME280;18905;42.668;23.364;2024-02-26T04:01:08;94619.19;;;7.76;78.36
28626;BME280;18905;42.668;23.364;2024-02-26T04:03:33;94606.63;;;7.61;78.88
28626;BME280;18905;42.668;23.364;2024-02-26T04:05:59;94605.09;;;7.60;79.11
28626;BME280;18905;42.668;23.364;2024-02-26T04:08:25;94601.81;;;7.60;78.96
28626;BME280;18905;42.668;23.364;2024-02-26T04:10:50;94596.84;;;7.63;78.89
28626;BME280;18905;42.668;23.364;2024-02-26T04:13:17;94606.81;;;7.65;78.36
28626;BME280;18905;42.668;23.364;2024-02-26T04:15:42;94597.88;;;7.62;78.49
28626;BME280;18905;42.668;23.364;2024-02-26T04:18:08;94589.91;;;7.50;79.28
28626;BME280;18905;42.668;23.364;2024-02-26T04:20:33;94588.44;;;7.44;79.64
28626;BME280;18905;42.668;23.364;2024-02-26T04:22:58;94588.75;;;7.43;79.60
28626;BME280;18905;42.668;23.364;2024-02-26T04:25:24;94584.13;;;7.26;80.42
28626;BME280;18905;42.668;23.364;2024-02-26T04:27:49;94582.19;;;7.37;79.08
28626;BME280;18905;42.668;23.364;2024-02-26T04:30:15;94575.16;;;7.42;78.97
28626;BME280;18905;42.668;23.364;2024-02-26T04:32:40;94576.78;;;7.38;79.70
28626;BME280;18905;42.668;23.364;2024-02-26T04:35:06;94570.59;;;7.26;79.70
28626;BME280;18905;42.668;23.364;2024-02-26T04:37:31;94583.84;;;7.14;80.39
28626;BME280;18905;42.668;23.364;2024-02-26T04:40:00;94583.97;;;7.04;81.11
28626;BME280;18905;42.668;23.364;2024-02-26T04:42:27;94587.31;;;7.04;80.85
28626;BME280;18905;42.668;23.364;2024-02-26T04:44:52;94586.59;;;6.99;80.77
28626;BME280;18905;42.668;23.364;2024-02-26T04:47:18;94587.50;;;7.08;79.93
28626;BME280;18905;42.668;23.364;2024-02-26T04:49:43;94588.84;;;7.05;80.83
28626;BME280;18905;42.668;23.364;2024-02-26T04:52:08;94581.91;;;7.06;79.75
28626;BME280;18905;42.668;23.364;2024-02-26T04:54:34;94593.03;;;7.15;79.16
28626;BME280;18905;42.668;23.364;2024-02-26T04:56:59;94601.13;;;7.03;80.27
28626;BME280;18905;42.668;23.364;2024-02-26T04:59:25;94596.38;;;6.97;80.29
28626;BME280;18905;42.668;23.364;2024-02-26T05:01:50;94594.22;;;7.04;84.97
28626;BME280;18905;42.668;23.364;2024-02-26T05:04:17;94605.50;;;7.67;89.21
28626;BME280;18905;42.668;23.364;2024-02-26T05:06:43;94611.28;;;7.59;81.54
28626;BME280;18905;42.668;23.364;2024-02-26T05:09:08;94612.97;;;7.50;79.96
28626;BME280;18905;42.668;23.364;2024-02-26T05:11:34;94609.63;;;7.95;81.24
28626;BME280;18905;42.668;23.364;2024-02-26T05:14:00;94609.50;;;8.14;77.69
28626;BME280;18905;42.668;23.364;2024-02-26T05:16:26;94629.38;;;8.09;76.99
28626;BME280;18905;42.668;23.364;2024-02-26T05:18:52;94627.88;;;8.35;76.55
28626;BME280;18905;42.668;23.364;2024-02-26T05:21:18;94634.88;;;7.88;77.95
28626;BME280;18905;42.668;23.364;2024-02-26T05:23:43;94637.28;;;8.26;75.43
28626;BME280;18905;42.668;23.364;2024-02-26T05:26:09;94645.97;;;8.30;74.62
28626;BME280;18905;42.668;23.364;2024-02-26T05:28:34;94646.13;;;8.20;74.94
28626;BME280;18905;42.668;23.364;2024-02-26T05:31:01;94638.25;;;8.43;79.07
28626;BME280;18905;42.668;23.364;2024-02-26T05:33:26;94642.16;;;8.90;80.45
28626;BME280;18905;42.668;23.364;2024-02-26T05:35:52;94634.72;;;9.02;73.53
28626;BME280;18905;42.668;23.364;2024-02-26T05:38:17;94658.66;;;9.11;71.85
28626;BME280;18905;42.668;23.364;2024-02-26T05:40:42;94647.06;;;9.00;72.40
28626;BME280;18905;42.668;23.364;2024-02-26T05:43:08;94653.56;;;8.98;72.28
28626;BME280;18905;42.668;23.364;2024-02-26T05:45:33;94658.53;;;8.94;72.59
28626;BME280;18905;42.668;23.364;2024-02-26T05:47:58;94656.41;;;8.96;72.77
28626;BME280;18905;42.668;23.364;2024-02-26T05:50:24;94656.63;;;9.00;72.69
28626;BME280;18905;42.668;23.364;2024-02-26T05:52:49;94663.72;;;9.03;72.75
28626;BME280;18905;42.668;23.364;2024-02-26T05:55:14;94646.06;;;8.88;73.02
28626;BME280;18905;42.668;23.364;2024-02-26T05:57:40;94649.88;;;8.90;72.58
28626;BME280;18905;42.668;23.364;2024-02-26T06:00:06;94665.34;;;8.99;72.17
28626;BME280;18905;42.668;23.364;2024-02-26T06:02:32;94664.50;;;9.03;72.51
28626;BME280;18905;42.668;23.364;2024-02-26T06:04:57;94658.06;;;8.79;73.03
28626;BME280;18905;42.668;23.364;2024-02-26T06:07:23;94675.09;;;8.88;72.27
28626;BME280;18905;42.668;23.364;2024-02-26T06:09:48;94657.72;;;8.72;72.49
28626;BME280;18905;42.668;23.364;2024-02-26T06:12:14;94672.25;;;8.76;73.19
28626;BME280;18905;42.668;23.364;2024-02-26T06:14:39;94675.69;;;8.72;73.70
28626;BME280;18905;42.668;23.364;2024-02-26T06:17:05;94672.56;;;8.75;73.63
28626;BME280;18905;42.668;23.364;2024-02-26T06:19:30;94675.97;;;8.70;73.44
28626;BME280;18905;42.668;23.364;2024-02-26T06:21:56;94678.94;;;8.77;73.69
28626;BME280;18905;42.668;23.364;2024-02-26T06:24:21;94676.63;;;8.62;74.01
28626;BME280;18905;42.668;23.364;2024-02-26T06:26:47;94685.13;;;8.35;75.15
28626;BME280;18905;42.668;23.364;2024-02-26T06:29:13;94682.91;;;8.15;75.68
28626;BME280;18905;42.668;23.364;2024-02-26T06:31:38;94681.00;;;8.21;75.77
28626;BME280;18905;42.668;23.364;2024-02-26T06:34:04;94679.84;;;8.00;77.16
28626;BME280;18905;42.668;23.364;2024-02-26T06:36:29;94687.53;;;8.00;76.69
28626;BME280;18905;42.668;23.364;2024-02-26T06:38:57;94679.38;;;7.97;77.42
28626;BME280;18905;42.668;23.364;2024-02-26T06:41:22;94687.22;;;7.87;77.41
28626;BME280;18905;42.668;23.364;2024-02-26T06:43:55;94676.66;;;7.75;77.97
28626;BME280;18905;42.668;23.364;2024-02-26T06:46:21;94680.72;;;7.76;78.16
28626;BME280;18905;42.668;23.364;2024-02-26T06:48:48;94681.25;;;7.92;77.84
28626;BME280;18905;42.668;23.364;2024-02-26T06:51:13;94668.50;;;8.01;77.04
28626;BME280;18905;42.668;23.364;2024-02-26T06:53:39;94678.69;;;8.06;77.77
28626;BME280;18905;42.668;23.364;2024-02-26T06:56:04;94681.28;;;8.19;76.34
28626;BME280;18905;42.668;23.364;2024-02-26T06:58:30;94679.38;;;8.11;76.49
28626;BME280;18905;42.668;23.364;2024-02-26T07:00:55;94675.75;;;8.12;76.27
28626;BME280;18905;42.668;23.364;2024-02-26T07:03:20;94679.09;;;8.13;76.48
28626;BME280;18905;42.668;23.364;2024-02-26T07:05:48;94677.59;;;8.12;76.17
28626;BME280;18905;42.668;23.364;2024-02-26T07:08:13;94684.78;;;8.10;76.37
28626;BME280;18905;42.668;23.364;2024-02-26T07:10:38;94684.31;;;8.08;77.16
28626;BME280;18905;42.668;23.364;2024-02-26T07:13:04;94686.16;;;8.21;76.00
28626;BME280;18905;42.668;23.364;2024-02-26T07:15:29;94688.50;;;8.17;75.94
28626;BME280;18905;42.668;23.364;2024-02-26T07:17:55;94696.09;;;8.09;77.30
28626;BME280;18905;42.668;23.364;2024-02-26T07:20:20;94694.09;;;8.06;77.10
28626;BME280;18905;42.668;23.364;2024-02-26T07:22:45;94692.78;;;8.08;76.84
28626;BME280;18905;42.668;23.364;2024-02-26T07:25:11;94694.31;;;8.23;77.55
28626;BME280;18905;42.668;23.364;2024-02-26T07:27:39;94702.13;;;8.31;76.78
28626;BME280;18905;42.668;23.364;2024-02-26T07:30:06;94692.34;;;8.47;76.57
28626;BME280;18905;42.668;23.364;2024-02-26T07:32:31;94689.84;;;8.69;75.75
28626;BME280;18905;42.668;23.364;2024-02-26T07:34:57;94697.00;;;8.58;75.61
28626;BME280;18905;42.668;23.364;2024-02-26T07:37:22;94695.69;;;8.61;75.14
28626;BME280;18905;42.668;23.364;2024-02-26T07:39:48;94699.75;;;8.48;75.89
28626;BME280;18905;42.668;23.364;2024-02-26T07:42:13;94692.25;;;8.65;75.75
28626;BME280;18905;42.668;23.364;2024-02-26T07:44:38;94702.59;;;8.74;75.45
28626;BME280;18905;42.668;23.364;2024-02-26T07:47:08;94697.09;;;8.67;75.82
28626;BME280;18905;42.668;23.364;2024-02-26T07:49:34;94693.50;;;8.68;75.11
28626;BME280;18905;42.668;23.364;2024-02-26T07:51:59;94691.56;;;8.74;75.69
28626;BME280;18905;42.668;23.364;2024-02-26T07:54:25;94702.34;;;9.47;82.62
28626;BME280;18905;42.668;23.364;2024-02-26T07:56:50;94695.81;;;10.16;76.35
28626;BME280;18905;42.668;23.364;2024-02-26T07:59:15;94697.94;;;10.53;71.08
28626;BME280;18905;42.668;23.364;2024-02-26T08:01:41;94683.19;;;10.06;71.02
28626;BME280;18905;42.668;23.364;2024-02-26T08:04:07;94692.47;;;9.63;72.27
28626;BME280;18905;42.668;23.364;2024-02-26T08:06:32;94690.66;;;9.63;72.74
28626;BME280;18905;42.668;23.364;2024-02-26T08:08:57;94669.91;;;9.37;73.89
28626;BME280;18905;42.668;23.364;2024-02-26T08:11:23;94688.00;;;9.55;72.96
28626;BME280;18905;42.668;23.364;2024-02-26T08:13:48;94686.66;;;9.57;73.32
28626;BME280;18905;42.668;23.364;2024-02-26T08:16:14;94690.38;;;9.65;73.71
28626;BME280;18905;42.668;23.364;2024-02-26T08:18:39;94670.78;;;9.55;73.93
28626;BME280;18905;42.668;23.364;2024-02-26T08:21:05;94683.63;;;9.77;73.55
28626;BME280;18905;42.668;23.364;2024-02-26T08:23:30;94672.63;;;9.85;73.31
28626;BME280;18905;42.668;23.364;2024-02-26T08:25:57;94667.97;;;9.96;73.01
28626;BME280;18905;42.668;23.364;2024-02-26T08:28:23;94685.06;;;10.14;71.69
28626;BME280;18905;42.668;23.364;2024-02-26T08:30:49;94684.19;;;10.27;71.38
28626;BME280;18905;42.668;23.364;2024-02-26T08:33:15;94667.72;;;10.37;71.00
28626;BME280;18905;42.668;23.364;2024-02-26T08:35:40;94683.13;;;10.67;68.35
28626;BME280;18905;42.668;23.364;2024-02-26T08:38:06;94687.88;;;10.91;67.01
28626;BME280;18905;42.668;23.364;2024-02-26T08:40:31;94686.06;;;11.00;66.65
28626;BME280;18905;42.668;23.364;2024-02-26T08:42:56;94653.91;;;10.89;64.74
28626;BME280;18905;42.668;23.364;2024-02-26T08:45:22;94679.72;;;11.15;66.11
28626;BME280;18905;42.668;23.364;2024-02-26T08:47:48;94671.97;;;11.32;66.09
28626;BME280;18905;42.668;23.364;2024-02-26T08:50:14;94654.22;;;11.13;66.45
28626;BME280;18905;42.668;23.364;2024-02-26T08:52:39;94678.81;;;11.28;66.26
28626;BME280;18905;42.668;23.364;2024-02-26T08:55:06;94674.88;;;11.30;65.16
28626;BME280;18905;42.668;23.364;2024-02-26T08:57:34;94680.19;;;11.17;64.82
28626;BME280;18905;42.668;23.364;2024-02-26T09:00:00;94691.09;;;11.39;64.73
28626;BME280;18905;42.668;23.364;2024-02-26T09:02:26;94696.09;;;11.62;64.07
28626;BME280;18905;42.668;23.364;2024-02-26T09:04:51;94679.84;;;11.78;64.01
28626;BME280;18905;42.668;23.364;2024-02-26T09:07:18;94676.44;;;12.03;62.60
28626;BME280;18905;42.668;23.364;2024-02-26T09:09:44;94674.00;;;12.15;61.86
28626;BME280;18905;42.668;23.364;2024-02-26T09:12:09;94664.31;;;12.04;61.24
28626;BME280;18905;42.668;23.364;2024-02-26T09:14:35;94664.69;;;11.77;61.53
28626;BME280;18905;42.668;23.364;2024-02-26T09:17:00;94674.81;;;11.90;61.81
28626;BME280;18905;42.668;23.364;2024-02-26T09:19:26;94663.91;;;11.85;62.70
28626;BME280;18905;42.668;23.364;2024-02-26T09:21:53;94662.84;;;11.77;62.18
28626;BME280;18905;42.668;23.364;2024-02-26T09:24:22;94653.44;;;11.73;61.98
28626;BME280;18905;42.668;23.364;2024-02-26T09:26:48;94647.84;;;11.71;61.79
28626;BME280;18905;42.668;23.364;2024-02-26T09:29:13;94642.81;;;11.74;62.38
28626;BME280;18905;42.668;23.364;2024-02-26T09:31:38;94649.50;;;11.75;62.54
28626;BME280;18905;42.668;23.364;2024-02-26T09:34:06;94655.63;;;12.08;61.77
28626;BME280;18905;42.668;23.364;2024-02-26T09:36:33;94657.19;;;12.39;60.84
28626;BME280;18905;42.668;23.364;2024-02-26T09:38:58;94655.81;;;12.41;60.59
28626;BME280;18905;42.668;23.364;2024-02-26T09:41:27;94657.88;;;12.56;59.72
28626;BME280;18905;42.668;23.364;2024-02-26T09:43:56;94646.31;;;12.83;56.84
28626;BME280;18905;42.668;23.364;2024-02-26T09:46:22;94638.38;;;12.88;57.08
28626;BME280;18905;42.668;23.364;2024-02-26T09:48:47;94650.63;;;13.00;57.07
28626;BME280;18905;42.668;23.364;2024-02-26T09:51:14;94646.16;;;13.09;57.76
28626;BME280;18905;42.668;23.364;2024-02-26T09:53:43;94651.88;;;13.35;55.35
28626;BME280;18905;42.668;23.364;2024-02-26T09:56:11;94640.63;;;13.51;56.19
28626;BME280;18905;42.668;23.364;2024-02-26T09:58:38;94643.72;;;13.65;54.61
28626;BME280;18905;42.668;23.364;2024-02-26T10:01:13;94642.66;;;13.79;53.73
28626;BME280;18905;42.668;23.364;2024-02-26T10:03:41;94640.00;;;13.54;53.95
28626;BME280;18905;42.668;23.364;2024-02-26T10:06:09;94650.88;;;13.81;54.03
28626;BME280;18905;42.668;23.364;2024-02-26T10:08:35;94637.19;;;13.59;53.74
28626;BME280;18905;42.668;23.364;2024-02-26T10:11:02;94635.94;;;13.12;55.47
28626;BME280;18905;42.668;23.364;2024-02-26T10:13:28;94637.38;;;13.22;54.68
28626;BME280;18905;42.668;23.364;2024-02-26T10:15:53;94633.72;;;13.23;55.21
28626;BME280;18905;42.668;23.364;2024-02-26T10:18:18;94635.59;;;13.34;54.29
28626;BME280;18905;42.668;23.364;2024-02-26T10:21:03;94645.47;;;13.20;53.77
28626;BME280;18905;42.668;23.364;2024-02-26T10:23:29;94625.28;;;13.14;54.31
28626;BME280;18905;42.668;23.364;2024-02-26T10:25:55;94632.84;;;13.19;54.17
28626;BME280;18905;42.668;23.364;2024-02-26T10:28:21;94632.47;;;13.08;54.29
28626;BME280;18905;42.668;23.364;2024-02-26T10:30:46;94621.00;;;13.18;54.80
28626;BME280;18905;42.668;23.364;2024-02-26T10:33:12;94633.22;;;13.29;54.02
28626;BME280;18905;42.668;23.364;2024-02-26T10:35:39;94608.25;;;13.13;53.79
28626;BME280;18905;42.668;23.364;2024-02-26T10:38:07;94628.06;;;13.09;53.38
28626;BME280;18905;42.668;23.364;2024-02-26T10:40:32;94615.66;;;13.14;53.74
28626;BME280;18905;42.668;23.364;2024-02-26T10:42:58;94612.19;;;13.31;53.87
28626;BME280;18905;42.668;23.364;2024-02-26T10:45:24;94602.81;;;13.26;53.70
28626;BME280;18905;42.668;23.364;2024-02-26T10:47:50;94607.81;;;13.43;54.07
28626;BME280;18905;42.668;23.364;2024-02-26T10:50:15;94610.34;;;13.52;53.17
28626;BME280;18905;42.668;23.364;2024-02-26T10:52:42;94612.59;;;13.53;52.79
28626;BME280;18905;42.668;23.364;2024-02-26T10:55:15;94610.06;;;13.78;52.43
28626;BME280;18905;42.668;23.364;2024-02-26T10:57:41;94601.19;;;13.54;53.23
28626;BME280;18905;42.668;23.364;2024-02-26T11:00:10;94601.44;;;13.74;51.89
28626;BME280;18905;42.668;23.364;2024-02-26T11:02:38;94595.44;;;13.49;53.19
28626;BME280;18905;42.668;23.364;2024-02-26T11:05:06;94599.16;;;13.72;52.10
28626;BME280;18905;42.668;23.364;2024-02-26T11:07:32;94598.97;;;13.89;51.16
28626;BME280;18905;42.668;23.364;2024-02-26T11:09:59;94596.38;;;13.89;51.57
28626;BME280;18905;42.668;23.364;2024-02-26T11:12:25;94594.16;;;13.55;51.76
28626;BME280;18905;42.668;23.364;2024-02-26T11:14:53;94589.16;;;13.83;51.66
28626;BME280;18905;42.668;23.364;2024-02-26T11:17:21;94605.97;;;13.77;51.31
28626;BME280;18905;42.668;23.364;2024-02-26T11:19:49;94588.72;;;13.48;51.05
28626;BME280;18905;42.668;23.364;2024-02-26T11:22:15;94593.84;;;13.68;52.06
28626;BME280;18905;42.668;23.364;2024-02-26T11:24:40;94601.94;;;14.36;67.91
28626;BME280;18905;42.668;23.364;2024-02-26T11:27:09;94594.19;;;15.28;60.76
28626;BME280;18905;42.668;23.364;2024-02-26T11:29:43;94584.91;;;15.70;50.00
28626;BME280;18905;42.668;23.364;2024-02-26T11:32:10;94583.84;;;15.87;53.77
28626;BME280;18905;42.668;23.364;2024-02-26T11:34:36;94591.81;;;15.78;46.70
28626;BME280;18905;42.668;23.364;2024-02-26T11:37:12;94579.94;;;15.65;46.63
28626;BME280;18905;42.668;23.364;2024-02-26T11:39:41;94585.31;;;15.29;47.26
28626;BME280;18905;42.668;23.364;2024-02-26T11:42:08;94586.69;;;15.11;47.55
28626;BME280;18905;42.668;23.364;2024-02-26T11:44:34;94586.44;;;15.16;47.84
28626;BME280;18905;42.668;23.364;2024-02-26T11:47:10;94591.22;;;14.62;48.79
28626;BME280;18905;42.668;23.364;2024-02-26T11:49:35;94588.75;;;14.29;49.89
28626;BME280;18905;42.668;23.364;2024-02-26T11:52:05;94595.66;;;14.13;49.16
28626;BME280;18905;42.668;23.364;2024-02-26T11:54:53;94595.00;;;14.28;49.72
28626;BME280;18905;42.668;23.364;2024-02-26T11:57:29;94590.59;;;14.28;49.03
28626;BME280;18905;42.668;23.364;2024-02-26T11:59:56;94585.75;;;14.39;48.93
28626;BME280;18905;42.668;23.364;2024-02-26T12:05:20;94587.88;;;14.13;49.40
28626;BME280;18905;42.668;23.364;2024-02-26T12:07:59;94570.72;;;14.08;49.79
28626;BME280;18905;42.668;23.364;2024-02-26T12:10:30;94585.28;;;14.25;48.57
28626;BME280;18905;42.668;23.364;2024-02-26T12:13:00;94586.25;;;14.08;48.91
28626;BME280;18905;42.668;23.364;2024-02-26T12:15:31;94587.88;;;14.01;49.07
28626;BME280;18905;42.668;23.364;2024-02-26T12:17:58;94571.69;;;14.16;49.15
28626;BME280;18905;42.668;23.364;2024-02-26T12:20:25;94574.06;;;14.45;48.49
28626;BME280;18905;42.668;23.364;2024-02-26T12:22:50;94577.63;;;14.65;47.84
28626;BME280;18905;42.668;23.364;2024-02-26T12:25:20;94586.28;;;14.96;47.14
28626;BME280;18905;42.668;23.364;2024-02-26T12:27:46;94585.97;;;14.86;46.79
28626;BME280;18905;42.668;23.364;2024-02-26T12:30:12;94579.44;;;14.76;46.69
28626;BME280;18905;42.668;23.364;2024-02-26T12:32:37;94594.38;;;14.55;47.07
28626;BME280;18905;42.668;23.364;2024-02-26T12:35:04;94586.25;;;14.57;47.71
28626;BME280;18905;42.668;23.364;2024-02-26T12:37:30;94577.50;;;14.61;47.46
28626;BME280;18905;42.668;23.364;2024-02-26T12:39:55;94580.56;;;14.39;47.03
28626;BME280;18905;42.668;23.364;2024-02-26T12:42:21;94580.09;;;14.61;46.98
28626;BME280;18905;42.668;23.364;2024-02-26T12:44:46;94581.69;;;14.78;46.63
28626;BME280;18905;42.668;23.364;2024-02-26T12:47:12;94592.00;;;15.02;45.70
28626;BME280;18905;42.668;23.364;2024-02-26T12:49:42;94576.81;;;15.16;44.53
28626;BME280;18905;42.668;23.364;2024-02-26T12:52:09;94576.97;;;15.07;44.15
28626;BME280;18905;42.668;23.364;2024-02-26T12:54:35;94582.91;;;15.08;44.01